createdAt,value
2023-04-25T00:00:24.369Z,12.20
2023-04-25T00:03:46.676Z,10.30
2023-04-25T00:06:48.803Z,9.10
2023-04-25T00:09:50.994Z,10.10
2023-04-25T00:15:54.144Z,7.20
2023-04-25T00:18:56.020Z,10.00
2023-04-25T00:21:57.829Z,8.10
2023-04-25T00:25:00.684Z,9.30
2023-04-25T00:28:02.360Z,9.80
2023-04-25T00:31:04.278Z,10.10
2023-04-25T00:34:08.652Z,8.50
2023-04-25T00:37:10.992Z,7.60
2023-04-25T00:40:12.843Z,9.60
2023-04-25T00:43:14.597Z,9.30
2023-04-25T00:46:16.334Z,8.10
2023-04-25T00:49:18.126Z,10.50
2023-04-25T00:52:28.881Z,10.80
2023-04-25T00:55:31.863Z,11.40
2023-04-25T00:58:34.218Z,9.50
2023-04-25T01:01:36.245Z,10.50
2023-04-25T01:04:38.349Z,9.10
2023-04-25T01:07:41.433Z,10.80
2023-04-25T01:10:43.215Z,11.20
2023-04-25T01:13:45.065Z,9.70
2023-04-25T01:16:46.997Z,10.40
2023-04-25T01:19:49.391Z,9.10
2023-04-25T01:22:51.757Z,10.50
2023-04-25T01:25:54.097Z,8.80
2023-04-25T01:28:56.155Z,12.60
2023-04-25T01:31:59.005Z,10.50
2023-04-25T01:35:01.041Z,10.10
2023-04-25T01:38:02.716Z,9.60
2023-04-25T01:41:05.659Z,9.80
2023-04-25T01:44:07.490Z,8.30
2023-04-25T01:47:09.156Z,10.80
2023-04-25T01:50:11.651Z,9.30
2023-04-25T01:53:15.105Z,9.30
2023-04-25T01:56:19.249Z,6.70
2023-04-25T02:02:44.433Z,8.20
2023-04-25T02:05:55.784Z,8.00
2023-04-25T02:08:58.147Z,8.40
2023-04-25T02:12:00.194Z,9.30
2023-04-25T02:15:08.461Z,10.50
2023-04-25T02:18:16.690Z,10.60
2023-04-25T02:21:18.809Z,9.20
2023-04-25T02:24:20.668Z,7.50
2023-04-25T02:27:22.380Z,9.00
2023-04-25T02:30:24.254Z,10.50
2023-04-25T02:33:26.067Z,9.30
2023-04-25T02:36:28.030Z,12.00
2023-04-25T02:39:29.710Z,9.70
2023-04-25T02:42:31.497Z,7.50
2023-04-25T02:45:33.226Z,11.00
2023-04-25T02:48:34.927Z,8.60
2023-04-25T02:51:36.589Z,8.50
2023-04-25T02:54:40.466Z,8.30
2023-04-25T02:57:42.184Z,6.90
2023-04-25T03:00:45.440Z,7.40
2023-04-25T03:03:47.285Z,6.60
2023-04-25T03:06:49.009Z,4.90
2023-04-25T03:09:50.802Z,5.90
2023-04-25T03:12:52.492Z,4.60
2023-04-25T03:15:54.959Z,6.90
2023-04-25T03:18:57.196Z,3.70
2023-04-25T03:25:00.699Z,3.90
2023-04-25T03:28:02.415Z,5.70
2023-04-25T03:31:04.182Z,5.20
2023-04-25T03:34:05.876Z,8.10
2023-04-25T03:37:07.622Z,7.40
2023-04-25T03:40:12.560Z,5.60
2023-04-25T03:43:43.230Z,6.00
2023-04-25T03:46:47.632Z,8.10
2023-04-25T03:49:52.105Z,6.60
2023-04-25T03:52:56.721Z,6.20
2023-04-25T03:56:03.030Z,4.50
2023-04-25T03:59:06.148Z,3.80
2023-04-25T04:02:07.920Z,4.60
2023-04-25T04:05:11.238Z,4.70
2023-04-25T04:08:17.714Z,6.20
2023-04-25T04:11:20.791Z,3.60
2023-04-25T04:14:22.814Z,13.80
2023-04-25T04:17:25.700Z,3.90
2023-04-25T04:20:27.618Z,5.60
2023-04-25T04:23:30.103Z,4.50
2023-04-25T04:26:34.020Z,6.10
2023-04-25T04:29:44.656Z,6.30
2023-04-25T04:32:54.417Z,4.10
2023-04-25T04:35:56.808Z,4.80
2023-04-25T04:38:58.669Z,4.00
2023-04-25T04:42:24.548Z,4.30
2023-04-25T04:45:44.964Z,4.00
2023-04-25T04:49:05.681Z,5.50
2023-04-25T04:52:21.180Z,3.20
2023-04-25T04:55:54.905Z,4.00
2023-04-25T04:59:22.468Z,3.80
2023-04-25T05:02:42.576Z,3.20
2023-04-25T05:06:03.780Z,2.00
2023-04-25T05:09:26.152Z,10.50
2023-04-25T05:13:04.227Z,3.70
2023-04-25T05:16:24.322Z,3.80
2023-04-25T05:19:48.908Z,4.10
2023-04-25T05:23:13.594Z,4.90
2023-04-25T05:26:31.323Z,5.80
2023-04-25T05:29:56.338Z,5.80
2023-04-25T05:33:04.531Z,5.20
2023-04-25T05:36:07.308Z,6.40
2023-04-25T05:39:09.346Z,3.40
2023-04-25T05:42:29.612Z,4.40
2023-04-25T05:45:47.207Z,4.10
2023-04-25T05:49:16.035Z,2.90
2023-04-25T05:52:40.259Z,4.50
2023-04-25T05:55:53.349Z,4.10
2023-04-25T05:59:00.557Z,4.70
2023-04-25T06:02:02.411Z,4.40
2023-04-25T06:05:04.897Z,7.40
2023-04-25T06:08:07.511Z,4.80
2023-04-25T06:11:09.538Z,5.70
2023-04-25T06:14:11.256Z,5.40
2023-04-25T06:17:15.413Z,5.80
2023-04-25T06:20:17.207Z,4.50
2023-04-25T06:23:18.952Z,4.20
2023-04-25T06:26:25.857Z,5.50
2023-04-25T06:29:27.921Z,4.70
2023-04-25T06:32:30.363Z,5.70
2023-04-25T06:35:33.694Z,4.10
2023-04-25T06:38:35.848Z,4.80
2023-04-25T06:41:37.719Z,5.30
2023-04-25T06:44:41.646Z,3.60
2023-04-25T06:47:44.125Z,5.10
2023-04-25T06:50:46.124Z,6.30
2023-04-25T06:53:47.857Z,5.60
2023-04-25T06:56:58.710Z,3.60
2023-04-25T07:00:05.696Z,4.00
2023-04-25T07:03:07.686Z,5.50
2023-04-25T07:06:09.556Z,5.40
2023-04-25T07:09:11.766Z,6.70
2023-04-25T07:12:14.201Z,9.50
2023-04-25T07:15:16.256Z,7.20
2023-04-25T07:18:19.249Z,5.40
2023-04-25T07:24:24.895Z,10.70
2023-04-25T07:30:37.886Z,9.60
2023-04-25T07:33:39.820Z,7.00
2023-04-25T07:36:41.963Z,5.80
2023-04-25T07:42:46.098Z,5.50
2023-04-25T07:45:51.365Z,5.60
2023-04-25T07:48:54.051Z,7.20
2023-04-25T07:51:56.854Z,5.00
2023-04-25T07:54:59.036Z,6.10
2023-04-25T07:58:08.609Z,5.20
2023-04-25T08:01:11.981Z,6.50
2023-04-25T08:04:19.834Z,5.80
2023-04-25T08:07:35.525Z,6.10
2023-04-25T08:10:39.017Z,6.70
2023-04-25T08:16:43.322Z,5.60
2023-04-25T08:19:45.369Z,4.70
2023-04-25T08:22:53.811Z,7.50
2023-04-25T08:26:17.548Z,10.70
2023-04-25T08:29:19.471Z,5.80
2023-04-25T08:32:21.879Z,8.10
2023-04-25T08:35:36.872Z,3.90
2023-04-25T08:38:38.757Z,10.00
2023-04-25T08:41:41.936Z,4.00
2023-04-25T08:44:46.460Z,3.60
2023-04-25T08:47:53.336Z,3.70
2023-04-25T08:50:56.706Z,7.60
2023-04-25T08:57:20.304Z,2.40
2023-04-25T09:00:23.288Z,2.80
2023-04-25T09:03:25.327Z,4.90
2023-04-25T09:06:29.548Z,7.90
2023-04-25T09:09:31.620Z,4.10
2023-04-25T09:12:35.394Z,3.80
2023-04-25T09:15:57.607Z,3.40
2023-04-25T09:19:40.878Z,3.60
2023-04-25T09:23:06.051Z,3.80
2023-04-25T09:26:10.207Z,2.90
2023-04-25T09:29:11.873Z,5.60
2023-04-25T09:32:21.460Z,3.00
2023-04-25T09:35:28.395Z,2.60
2023-04-25T09:38:33.251Z,3.60
2023-04-25T09:41:46.168Z,5.90
2023-04-25T09:44:48.139Z,3.50
2023-04-25T09:47:51.018Z,2.80
2023-04-25T09:51:14.976Z,6.40
2023-04-25T09:54:17.914Z,2.50
2023-04-25T09:57:25.131Z,2.50
2023-04-25T10:00:28.594Z,3.20
2023-04-25T10:03:35.530Z,2.00
2023-04-25T10:06:53.874Z,2.10
2023-04-25T10:10:02.171Z,1.30
2023-04-25T10:13:05.998Z,3.40
2023-04-25T10:16:08.483Z,3.40
2023-04-25T10:19:11.231Z,4.50
2023-04-25T10:22:29.954Z,3.70
2023-04-25T10:25:32.306Z,2.10
2023-04-25T10:28:58.758Z,3.50
2023-04-25T10:32:01.039Z,4.30
2023-04-25T10:35:27.533Z,2.70
2023-04-25T10:38:29.305Z,3.20
2023-04-25T10:41:31.082Z,2.50
2023-04-25T10:44:33.026Z,1.70
2023-04-25T10:47:47.824Z,3.60
2023-04-25T10:50:49.863Z,2.40
2023-04-25T10:54:12.176Z,2.80
2023-04-25T11:00:56.891Z,3.20
2023-04-25T11:04:01.502Z,4.60
2023-04-25T11:07:07.467Z,3.40
2023-04-25T11:10:10.234Z,1.70
2023-04-25T11:13:12.209Z,3.00
2023-04-25T11:19:21.195Z,5.00
2023-04-25T11:22:23.637Z,2.50
2023-04-25T11:25:26.220Z,3.80
2023-04-25T11:28:28.134Z,2.20
2023-04-25T11:31:30.632Z,2.00
2023-04-25T11:34:35.781Z,3.20
2023-04-25T11:37:40.572Z,5.70
2023-04-25T11:40:42.329Z,3.30
2023-04-25T11:43:44.713Z,4.60
2023-04-25T11:46:47.137Z,3.20
2023-04-25T11:49:49.285Z,3.90
2023-04-25T11:52:51.392Z,2.00
2023-04-25T11:55:53.632Z,3.90
2023-04-25T11:58:56.875Z,2.20
2023-04-25T12:01:58.862Z,2.80
2023-04-25T12:05:11.820Z,3.00
2023-04-25T12:08:18.058Z,3.70
2023-04-25T12:11:22.993Z,3.20
2023-04-25T12:14:29.765Z,11.20
2023-04-25T12:17:31.737Z,4.20
2023-04-25T12:20:34.480Z,7.80
2023-04-25T12:23:39.946Z,5.20
2023-04-25T12:26:59.447Z,5.30
2023-04-25T12:30:02.164Z,2.50
2023-04-25T12:33:04.088Z,2.80
2023-04-25T12:36:11.084Z,3.70
2023-04-25T12:39:20.700Z,3.60
2023-04-25T12:42:22.446Z,2.90
2023-04-25T12:45:24.186Z,2.10
2023-04-25T12:48:26.036Z,2.00
2023-04-25T12:51:28.315Z,4.10
2023-04-25T12:54:30.159Z,8.00
2023-04-25T12:57:31.976Z,5.10
2023-04-25T13:00:34.171Z,4.00
2023-04-25T13:06:38.487Z,4.60
2023-04-25T13:09:40.463Z,6.80
2023-04-25T13:12:44.239Z,5.90
2023-04-25T13:15:46.602Z,7.90
2023-04-25T13:21:50.350Z,7.00
2023-04-25T13:24:52.083Z,4.10
2023-04-25T13:27:53.815Z,4.70
2023-04-25T13:30:55.876Z,4.50
2023-04-25T13:33:57.530Z,4.10
2023-04-25T13:36:59.348Z,3.80
2023-04-25T13:40:04.659Z,3.10
2023-04-25T13:43:09.142Z,3.30
2023-04-25T13:46:30.164Z,4.20
2023-04-25T13:49:33.832Z,4.90
2023-04-25T13:52:35.749Z,4.80
2023-04-25T13:55:37.895Z,3.90
2023-04-25T13:58:39.970Z,4.30
2023-04-25T14:01:41.985Z,5.00
2023-04-25T14:04:43.855Z,4.80
2023-04-25T14:07:46.147Z,6.50
2023-04-25T14:13:49.981Z,7.00
2023-04-25T14:16:54.155Z,5.50
2023-04-25T14:19:55.913Z,7.60
2023-04-25T14:22:58.523Z,3.70
2023-04-25T14:26:00.498Z,5.40
2023-04-25T14:29:02.256Z,3.20
2023-04-25T14:32:05.568Z,7.10
2023-04-25T14:35:07.662Z,6.30
2023-04-25T14:38:09.338Z,3.70
2023-04-25T14:41:11.332Z,5.30
2023-04-25T14:44:13.066Z,4.60
2023-04-25T14:47:22.540Z,3.90
2023-04-25T14:50:26.577Z,4.80
2023-04-25T14:53:31.134Z,4.90
2023-04-25T14:56:32.927Z,4.30
2023-04-25T14:59:35.065Z,8.60
2023-04-25T15:02:37.753Z,4.30
2023-04-25T15:05:41.226Z,2.80
2023-04-25T15:08:43.370Z,5.30
2023-04-25T15:11:45.914Z,5.30
2023-04-25T15:14:47.847Z,6.80
2023-04-25T15:17:49.891Z,4.50
2023-04-25T15:20:52.451Z,10.10
2023-04-25T15:23:54.376Z,6.20
2023-04-25T15:26:56.927Z,5.60
2023-04-25T15:29:58.652Z,6.10
2023-04-25T15:33:00.508Z,2.40
2023-04-25T15:36:03.627Z,2.90
2023-04-25T15:39:05.344Z,4.10
2023-04-25T15:42:07.639Z,4.90
2023-04-25T15:45:11.416Z,4.50
2023-04-25T15:48:13.246Z,4.90
2023-04-25T15:51:16.533Z,3.00
2023-04-25T15:54:18.316Z,7.70
2023-04-25T15:57:20.362Z,12.30
2023-04-25T16:00:22.312Z,11.00
2023-04-25T16:03:24.316Z,8.10
2023-04-25T16:06:26.790Z,2.40
2023-04-25T16:09:28.969Z,3.40
2023-04-25T16:12:30.749Z,2.70
2023-04-25T16:15:34.617Z,2.50
2023-04-25T16:18:37.359Z,4.20
2023-04-25T16:21:39.577Z,4.50
2023-04-25T16:24:42.468Z,3.80
2023-04-25T16:27:44.297Z,2.20
2023-04-25T16:30:46.445Z,5.20
2023-04-25T16:36:56.466Z,4.10
2023-04-25T16:40:00.414Z,5.60
2023-04-25T16:43:02.221Z,2.30
2023-04-25T16:46:04.126Z,1.80
2023-04-25T16:49:06.101Z,4.60
2023-04-25T16:52:08.217Z,4.90
2023-04-25T16:55:10.015Z,3.60
2023-04-25T17:01:19.384Z,3.90
2023-04-25T17:04:21.366Z,5.10
2023-04-25T17:07:23.776Z,3.70
2023-04-25T17:13:30.773Z,5.60
2023-04-25T17:16:35.856Z,9.70
2023-04-25T17:19:37.779Z,5.60
2023-04-25T17:22:39.798Z,4.80
2023-04-25T17:25:41.650Z,4.00
2023-04-25T17:28:48.407Z,4.10
2023-04-25T17:31:50.701Z,7.50
2023-04-25T17:37:54.076Z,4.90
2023-04-25T17:40:55.802Z,7.70
2023-04-25T17:43:57.516Z,6.60
2023-04-25T17:47:00.623Z,7.10
2023-04-25T17:50:03.559Z,8.40
2023-04-25T17:53:05.697Z,9.30
2023-04-25T17:56:19.407Z,8.30
2023-04-25T17:59:28.067Z,9.60
2023-04-25T18:02:30.731Z,8.50
2023-04-25T18:05:32.702Z,10.60
2023-04-25T18:08:34.360Z,9.70
2023-04-25T18:11:36.180Z,10.80
2023-04-25T18:14:39.082Z,7.10
2023-04-25T18:17:41.317Z,11.90
2023-04-25T18:20:44.661Z,6.50
2023-04-25T18:23:47.304Z,9.10
2023-04-25T18:26:49.866Z,6.20
2023-04-25T18:29:51.550Z,5.60
2023-04-25T18:32:54.521Z,7.50
2023-04-25T18:35:59.683Z,6.40
2023-04-25T18:39:15.554Z,8.10
2023-04-25T18:42:24.505Z,5.40
2023-04-25T18:48:28.008Z,8.30
2023-04-25T18:51:30.899Z,10.10
2023-04-25T18:54:32.650Z,12.10
2023-04-25T18:57:34.301Z,13.60
2023-04-25T19:00:37.309Z,16.40
2023-04-25T19:03:39.704Z,17.20
2023-04-25T19:06:41.797Z,16.20
2023-04-25T19:09:46.783Z,21.20
2023-04-25T19:12:48.660Z,31.80
2023-04-25T19:15:50.405Z,29.70
2023-04-25T19:18:54.365Z,25.50
2023-04-25T19:21:58.302Z,23.10
2023-04-25T19:25:10.014Z,19.90
2023-04-25T19:28:13.287Z,17.40
2023-04-25T19:31:16.065Z,16.00
2023-04-25T19:34:17.965Z,15.50
2023-04-25T19:37:19.968Z,17.50
2023-04-25T19:40:22.124Z,12.30
2023-04-25T19:43:24.035Z,7.90
2023-04-25T19:46:26.366Z,8.40
2023-04-25T19:52:30.984Z,9.50
2023-04-25T19:55:32.747Z,8.20
2023-04-25T19:58:35.070Z,8.50
2023-04-25T20:04:39.209Z,8.90
2023-04-25T20:07:41.753Z,8.80
2023-04-25T20:10:43.652Z,4.80
2023-04-25T20:13:45.353Z,5.60
2023-04-25T20:16:47.268Z,6.40
2023-04-25T20:19:48.974Z,5.70
2023-04-25T20:22:50.944Z,3.90
2023-04-25T20:25:52.770Z,4.80
2023-04-25T20:28:54.896Z,6.80
2023-04-25T20:34:59.127Z,3.30
2023-04-25T20:38:01.237Z,4.90
2023-04-25T20:41:03.157Z,7.60
2023-04-25T20:44:06.918Z,7.40
2023-04-25T20:47:09.610Z,6.90
2023-04-25T20:50:11.563Z,6.00
2023-04-25T20:53:14.406Z,4.90
2023-04-25T20:56:16.418Z,7.60
2023-04-25T20:59:18.138Z,9.70
2023-04-25T21:02:19.933Z,5.90
2023-04-25T21:05:22.257Z,7.20
2023-04-25T21:08:24.090Z,6.80
2023-04-25T21:11:26.632Z,6.60
2023-04-25T21:14:28.529Z,5.80
2023-04-25T21:17:30.287Z,7.10
2023-04-25T21:20:32.372Z,4.50
2023-04-25T21:23:34.159Z,8.90
2023-04-25T21:26:35.953Z,8.20
2023-04-25T21:29:37.626Z,6.10
2023-04-25T21:32:39.776Z,10.30
2023-04-25T21:35:41.494Z,10.60
2023-04-25T21:38:43.194Z,11.40
2023-04-25T21:41:45.774Z,8.60
2023-04-25T21:44:47.387Z,8.90
2023-04-25T21:47:49.986Z,8.00
2023-04-25T21:50:51.972Z,9.90
2023-04-25T21:53:53.691Z,6.70
2023-04-25T21:56:56.568Z,8.50
2023-04-25T21:59:58.466Z,7.80
2023-04-25T22:03:00.538Z,8.80
2023-04-25T22:06:03.259Z,10.40
2023-04-25T22:09:05.041Z,7.30
2023-04-25T22:12:07.430Z,10.20
2023-04-25T22:15:09.826Z,8.60
2023-04-25T22:18:12.671Z,9.70
2023-04-25T22:21:14.505Z,9.50
2023-04-25T22:24:16.196Z,11.80
2023-04-25T22:27:17.904Z,9.10
2023-04-25T22:30:19.830Z,8.50
2023-04-25T22:33:21.718Z,7.40
2023-04-25T22:36:23.485Z,8.80
2023-04-25T22:39:25.180Z,10.10
2023-04-25T22:42:26.869Z,10.90
2023-04-25T22:45:28.635Z,10.50
2023-04-25T22:48:30.334Z,9.50
2023-04-25T22:51:32.566Z,9.10
2023-04-25T22:54:34.637Z,8.70
2023-04-25T22:57:38.012Z,6.30
2023-04-25T23:00:40.768Z,7.20
2023-04-25T23:03:43.035Z,9.60
2023-04-25T23:06:45.694Z,8.10
2023-04-25T23:09:47.430Z,7.70
2023-04-25T23:12:49.453Z,7.20
2023-04-25T23:15:51.324Z,7.80
2023-04-25T23:18:53.252Z,13.60
2023-04-25T23:24:57.024Z,7.60
2023-04-25T23:27:58.761Z,11.00
2023-04-25T23:31:04.900Z,8.70
2023-04-25T23:34:07.025Z,10.20
2023-04-25T23:37:08.723Z,12.00
2023-04-25T23:40:13.681Z,10.40
2023-04-25T23:43:16.184Z,8.40
2023-04-25T23:49:20.412Z,8.80
2023-04-25T23:52:22.984Z,8.80
2023-04-25T23:55:24.779Z,7.90
2023-04-25T23:58:26.458Z,9.60
